Terminal Aerodrome Forecast
Issued by NWS

Home | Current Version | Previous Version | Text Only | Print | Product List | Glossary On
Versions: 1 2 3 4 5 6 7 8 9 10 11 12
000
FTAK31 PAFA 260520
TAFATA
TAF
PATA 260520Z 2606/2706 12006KT P6SM VCSH BKN035 BKN050 OVC100
     FM260900 09004KT P6SM VCSH BKN035 BKN050 OVC100=

USA.gov is the U.S. government's official web portal to all federal, state and local government web resources and services.